createdAt,value
2017-09-06T00:00:00.162Z,77.71
2017-09-06T00:02:28.455Z,77.52
2017-09-06T00:04:56.771Z,77.72
2017-09-06T00:07:25.097Z,78.14
2017-09-06T00:09:53.393Z,78.26
2017-09-06T00:12:21.697Z,78.54
2017-09-06T00:14:49.992Z,78.44
2017-09-06T00:17:18.303Z,78.59
2017-09-06T00:19:46.597Z,78.50
2017-09-06T00:22:14.904Z,78.58
2017-09-06T00:24:43.217Z,78.71
2017-09-06T00:27:11.521Z,78.75
2017-09-06T00:29:39.813Z,78.51
2017-09-06T00:32:08.493Z,78.76
2017-09-06T00:34:36.818Z,78.36
2017-09-06T00:37:05.121Z,78.20
2017-09-06T00:39:33.445Z,78.18
2017-09-06T00:42:01.746Z,78.47
2017-09-06T00:44:30.052Z,78.47
2017-09-06T00:46:58.340Z,78.65
2017-09-06T00:49:26.645Z,78.67
2017-09-06T00:51:54.936Z,78.55
2017-09-06T00:54:23.242Z,78.48
2017-09-06T00:56:51.846Z,78.36
2017-09-06T00:59:20.156Z,78.27
2017-09-06T01:01:48.448Z,78.46
2017-09-06T01:04:16.753Z,78.59
2017-09-06T01:06:45.054Z,78.41
2017-09-06T01:09:13.381Z,78.57
2017-09-06T01:11:41.688Z,78.74
2017-09-06T01:14:09.986Z,78.76
2017-09-06T01:16:38.303Z,78.74
2017-09-06T01:19:06.620Z,78.75
2017-09-06T01:21:34.921Z,79.27
2017-09-06T01:24:03.221Z,79.31
2017-09-06T01:26:31.533Z,78.83
2017-09-06T01:28:59.854Z,78.79
2017-09-06T01:31:28.149Z,78.85
2017-09-06T01:33:56.461Z,78.60
2017-09-06T01:36:24.769Z,78.72
2017-09-06T01:38:53.064Z,78.38
2017-09-06T01:41:21.388Z,78.22
2017-09-06T01:43:49.687Z,78.69
2017-09-06T01:46:17.989Z,78.69
2017-09-06T01:48:46.376Z,78.52
2017-09-06T01:51:14.683Z,78.65
2017-09-06T01:53:43.023Z,78.52
2017-09-06T01:56:11.312Z,78.82
2017-09-06T01:58:39.620Z,78.74
2017-09-06T02:01:07.964Z,78.53
2017-09-06T02:03:36.260Z,78.33
2017-09-06T02:06:04.558Z,78.25
2017-09-06T02:08:32.883Z,78.24
2017-09-06T02:11:01.173Z,78.33
2017-09-06T02:13:29.462Z,78.32
2017-09-06T02:15:57.774Z,78.42
2017-09-06T02:18:26.069Z,78.70
2017-09-06T02:20:54.369Z,79.37
2017-09-06T02:23:22.661Z,78.82
2017-09-06T02:25:50.968Z,79.05
2017-09-06T02:28:19.269Z,79.03
2017-09-06T02:30:47.571Z,79.02
2017-09-06T02:33:15.872Z,79.15
2017-09-06T02:35:44.185Z,79.34
2017-09-06T02:38:12.497Z,78.85
2017-09-06T02:40:40.830Z,79.24
2017-09-06T02:43:09.142Z,79.19
2017-09-06T02:45:37.440Z,79.09
2017-09-06T02:48:05.742Z,78.67
2017-09-06T02:50:34.036Z,79.05
2017-09-06T02:53:02.343Z,78.69
2017-09-06T02:55:30.642Z,79.07
2017-09-06T02:57:58.975Z,79.45
2017-09-06T03:00:27.279Z,79.44
2017-09-06T03:02:55.582Z,79.06
2017-09-06T03:05:23.885Z,78.97
2017-09-06T03:07:52.189Z,79.03
2017-09-06T03:10:20.498Z,78.93
2017-09-06T03:12:48.897Z,78.92
2017-09-06T03:15:17.193Z,78.84
2017-09-06T03:17:45.543Z,79.26
2017-09-06T03:20:13.851Z,79.24
2017-09-06T03:22:42.155Z,79.49
2017-09-06T03:25:10.452Z,79.61
2017-09-06T03:27:38.753Z,79.41
2017-09-06T03:30:07.069Z,79.37
2017-09-06T03:32:35.361Z,79.84
2017-09-06T03:35:03.671Z,79.88
2017-09-06T03:37:31.965Z,79.74
2017-09-06T03:40:00.274Z,79.84
2017-09-06T03:42:28.569Z,79.96
2017-09-06T03:44:56.883Z,80.25
2017-09-06T03:47:25.195Z,80.46
2017-09-06T03:49:53.495Z,80.97
2017-09-06T03:52:21.802Z,81.47
2017-09-06T03:54:50.106Z,81.49
2017-09-06T03:57:18.426Z,81.61
2017-09-06T03:59:46.733Z,81.63
2017-09-06T04:02:15.045Z,81.89
2017-09-06T04:04:43.345Z,81.98
2017-09-06T04:07:11.694Z,82.08
2017-09-06T04:09:40.009Z,81.90
2017-09-06T04:12:08.312Z,81.11
2017-09-06T04:14:36.625Z,80.65
2017-09-06T04:17:04.925Z,80.67
2017-09-06T04:19:33.236Z,80.68
2017-09-06T04:22:01.553Z,80.80
2017-09-06T04:24:29.875Z,80.64
2017-09-06T04:26:58.194Z,80.54
2017-09-06T04:29:26.510Z,80.67
2017-09-06T04:31:54.820Z,80.41
2017-09-06T04:34:23.135Z,80.54
2017-09-06T04:36:51.442Z,80.40
2017-09-06T04:39:19.750Z,80.17
2017-09-06T04:41:48.068Z,80.09
2017-09-06T04:44:16.369Z,80.08
2017-09-06T04:46:44.710Z,80.22
2017-09-06T04:49:13.019Z,80.07
2017-09-06T04:51:41.349Z,80.28
2017-09-06T04:54:09.648Z,80.17
2017-09-06T04:56:37.942Z,80.15
2017-09-06T04:59:06.256Z,80.31
2017-09-06T05:01:34.567Z,80.46
2017-09-06T05:04:02.885Z,80.55
2017-09-06T05:06:31.187Z,80.26
2017-09-06T05:08:59.501Z,79.89
2017-09-06T05:11:27.801Z,79.84
2017-09-06T05:13:56.126Z,79.54
2017-09-06T05:16:24.455Z,79.85
2017-09-06T05:18:52.771Z,79.32
2017-09-06T05:21:21.085Z,79.01
2017-09-06T05:23:49.390Z,78.99
2017-09-06T05:26:17.753Z,79.09
2017-09-06T05:28:46.050Z,79.07
2017-09-06T05:31:14.386Z,79.25
2017-09-06T05:33:42.689Z,79.15
2017-09-06T05:36:11.003Z,78.81
2017-09-06T05:38:39.313Z,78.56
2017-09-06T05:41:07.620Z,78.22
2017-09-06T05:43:35.935Z,77.91
2017-09-06T05:46:04.264Z,77.86
2017-09-06T05:48:32.569Z,77.79
2017-09-06T05:51:00.909Z,77.28
2017-09-06T05:53:29.230Z,76.87
2017-09-06T05:55:57.538Z,76.29
2017-09-06T05:58:25.849Z,76.01
2017-09-06T06:00:54.150Z,74.97
2017-09-06T06:03:22.574Z,74.41
2017-09-06T06:05:50.873Z,73.56
2017-09-06T06:08:19.209Z,72.08
2017-09-06T06:10:47.587Z,71.27
2017-09-06T06:13:15.896Z,71.09
2017-09-06T06:15:44.241Z,70.88
2017-09-06T06:18:12.631Z,70.68
2017-09-06T06:20:40.937Z,71.14
2017-09-06T06:23:09.236Z,72.06
2017-09-06T06:25:37.549Z,71.40
2017-09-06T06:28:05.845Z,69.99
2017-09-06T06:30:34.157Z,71.17
2017-09-06T06:33:02.493Z,70.69
2017-09-06T06:35:30.804Z,69.46
2017-09-06T06:37:59.148Z,69.06
2017-09-06T06:40:27.469Z,68.57
2017-09-06T06:42:55.805Z,68.43
2017-09-06T06:45:24.110Z,69.41
2017-09-06T06:47:52.449Z,68.94
2017-09-06T06:50:20.794Z,68.26
2017-09-06T06:52:49.112Z,67.03
2017-09-06T06:55:17.409Z,67.43
2017-09-06T06:57:45.713Z,67.77
2017-09-06T07:00:14.009Z,68.18
2017-09-06T07:02:42.320Z,70.13
2017-09-06T07:05:10.613Z,71.16
2017-09-06T07:07:38.950Z,71.28
2017-09-06T07:10:07.254Z,72.25
2017-09-06T07:12:35.550Z,73.19
2017-09-06T07:15:03.857Z,74.78
2017-09-06T07:17:32.165Z,76.61
2017-09-06T07:20:00.473Z,78.51
2017-09-06T07:22:28.769Z,80.96
2017-09-06T07:24:57.090Z,82.11
2017-09-06T07:27:25.394Z,83.29
2017-09-06T07:29:53.767Z,84.75
2017-09-06T07:32:22.072Z,84.43
2017-09-06T07:34:50.373Z,84.60
2017-09-06T07:37:18.694Z,84.62
2017-09-06T07:39:46.993Z,85.25
2017-09-06T07:42:15.298Z,84.37
2017-09-06T07:44:43.605Z,85.13
2017-09-06T07:47:11.909Z,84.87
2017-09-06T07:49:40.200Z,85.31
2017-09-06T07:52:08.536Z,85.27
2017-09-06T07:54:36.846Z,85.95
2017-09-06T07:57:05.149Z,84.21
2017-09-06T07:59:33.465Z,84.24
2017-09-06T08:02:01.875Z,84.18
2017-09-06T08:04:30.189Z,83.98
2017-09-06T08:07:03.963Z,83.60
2017-09-06T08:09:32.288Z,82.91
2017-09-06T08:12:00.737Z,81.86
2017-09-06T08:14:29.046Z,81.48
2017-09-06T08:16:57.363Z,81.64
2017-09-06T08:19:25.657Z,80.98
2017-09-06T08:21:53.957Z,80.69
2017-09-06T08:24:22.260Z,80.58
2017-09-06T08:26:50.569Z,79.76
2017-09-06T08:29:18.861Z,79.40
2017-09-06T08:31:47.164Z,79.31
2017-09-06T08:34:15.497Z,78.85
2017-09-06T08:36:43.821Z,78.46
2017-09-06T08:39:12.126Z,78.02
2017-09-06T08:41:40.422Z,77.39
2017-09-06T08:44:08.726Z,76.71
2017-09-06T08:46:37.029Z,76.62
2017-09-06T08:49:05.351Z,75.40
2017-09-06T08:51:33.657Z,74.27
2017-09-06T08:54:01.958Z,73.04
2017-09-06T08:56:30.262Z,71.70
2017-09-06T08:58:58.574Z,71.87
2017-09-06T09:01:26.865Z,70.61
2017-09-06T09:03:55.165Z,70.03
2017-09-06T09:06:23.488Z,70.32
2017-09-06T09:08:51.830Z,70.78
2017-09-06T09:11:20.125Z,71.84
2017-09-06T09:13:48.428Z,71.94
2017-09-06T09:16:16.745Z,71.25
2017-09-06T09:18:45.062Z,71.07
2017-09-06T09:21:13.377Z,70.20
2017-09-06T09:23:41.741Z,69.96
2017-09-06T09:26:10.048Z,68.97
2017-09-06T09:28:38.345Z,69.72
2017-09-06T09:31:06.673Z,68.15
2017-09-06T09:33:34.960Z,68.83
2017-09-06T09:36:03.329Z,66.18
2017-09-06T09:38:31.641Z,61.80
2017-09-06T09:40:59.937Z,63.72
2017-09-06T09:43:28.272Z,64.09
2017-09-06T09:45:56.566Z,63.83
2017-09-06T09:48:24.892Z,56.02
2017-09-06T09:50:53.303Z,46.16
2017-09-06T09:53:21.605Z,45.75
2017-09-06T09:55:49.919Z,45.03
2017-09-06T09:58:18.240Z,41.33
2017-09-06T10:00:46.533Z,40.40
2017-09-06T10:03:14.832Z,46.70
2017-09-06T10:05:43.237Z,52.83
2017-09-06T10:08:11.537Z,57.73
2017-09-06T10:10:39.844Z,58.20
2017-09-06T10:13:08.134Z,60.41
2017-09-06T10:15:36.448Z,60.83
2017-09-06T10:18:04.744Z,61.19
2017-09-06T10:20:33.077Z,62.43
2017-09-06T10:23:01.506Z,62.41
2017-09-06T10:25:29.885Z,62.42
2017-09-06T10:27:58.257Z,60.70
2017-09-06T10:30:26.549Z,59.46
2017-09-06T10:32:54.858Z,58.23
2017-09-06T10:35:23.164Z,56.46
2017-09-06T10:37:51.465Z,51.67
2017-09-06T10:40:19.811Z,51.05
2017-09-06T10:42:48.116Z,49.50
2017-09-06T10:45:16.405Z,49.78
2017-09-06T10:47:44.712Z,48.95
2017-09-06T10:50:13.009Z,51.18
2017-09-06T10:52:41.365Z,54.03
2017-09-06T10:55:09.656Z,55.98
2017-09-06T10:57:37.966Z,56.38
2017-09-06T11:00:06.282Z,56.18
2017-09-06T11:02:34.588Z,57.64
2017-09-06T11:05:02.901Z,57.24
2017-09-06T11:07:31.289Z,57.55
2017-09-06T11:09:59.597Z,57.01
2017-09-06T11:12:27.903Z,56.74
2017-09-06T11:14:56.225Z,55.85
2017-09-06T11:17:24.605Z,55.86
2017-09-06T11:19:52.981Z,57.95
2017-09-06T11:22:21.282Z,58.92
2017-09-06T11:24:49.643Z,59.69
2017-09-06T11:27:17.963Z,59.92
2017-09-06T11:29:46.262Z,59.00
2017-09-06T11:32:14.579Z,59.91
2017-09-06T11:34:42.873Z,59.69
2017-09-06T11:37:11.187Z,60.26
2017-09-06T11:39:39.480Z,60.88
2017-09-06T11:42:07.881Z,61.38
2017-09-06T11:44:36.261Z,62.05
2017-09-06T11:47:04.567Z,62.12
2017-09-06T11:49:32.878Z,60.32
2017-09-06T11:52:01.189Z,56.64
2017-09-06T11:54:29.501Z,54.47
2017-09-06T11:56:57.804Z,53.31
2017-09-06T11:59:26.109Z,56.36
2017-09-06T12:01:54.401Z,56.28
2017-09-06T12:04:22.701Z,55.98
2017-09-06T12:06:50.997Z,54.45
2017-09-06T12:09:19.307Z,54.23
2017-09-06T12:11:47.605Z,54.54
2017-09-06T12:14:15.937Z,55.19
2017-09-06T12:16:44.260Z,55.11
2017-09-06T12:19:12.561Z,55.15
2017-09-06T12:21:40.866Z,57.01
2017-09-06T12:24:09.165Z,56.65
2017-09-06T12:26:37.569Z,62.23
2017-09-06T12:29:05.868Z,68.49
2017-09-06T12:31:34.225Z,74.36
2017-09-06T12:34:02.634Z,77.50
2017-09-06T12:36:30.941Z,76.79
2017-09-06T12:38:59.335Z,75.16
2017-09-06T12:41:27.642Z,74.10
2017-09-06T12:43:55.944Z,73.87
2017-09-06T12:46:24.273Z,74.19
2017-09-06T12:48:52.569Z,77.93
2017-09-06T12:51:21.134Z,77.75
2017-09-06T12:53:49.529Z,79.28
2017-09-06T12:56:17.910Z,79.56
2017-09-06T12:58:46.241Z,77.86
2017-09-06T13:01:14.541Z,80.61
2017-09-06T13:03:42.854Z,80.75
2017-09-06T13:06:11.218Z,81.97
2017-09-06T13:08:39.553Z,82.44
2017-09-06T13:11:07.854Z,82.92
2017-09-06T13:13:36.141Z,82.76
2017-09-06T13:16:04.446Z,83.17
2017-09-06T13:18:32.805Z,82.25
2017-09-06T13:21:01.141Z,82.48
2017-09-06T13:23:29.450Z,81.55
2017-09-06T13:25:57.766Z,80.70
2017-09-06T13:28:26.069Z,79.19
2017-09-06T13:30:54.425Z,78.07
2017-09-06T13:33:22.733Z,75.93
2017-09-06T13:35:51.053Z,75.37
2017-09-06T13:38:19.414Z,75.92
2017-09-06T13:40:47.717Z,77.10
2017-09-06T13:43:16.031Z,78.12
2017-09-06T13:45:45.089Z,79.09
2017-09-06T13:48:13.459Z,79.43
2017-09-06T13:50:41.765Z,79.74
2017-09-06T13:53:10.098Z,78.52
2017-09-06T13:55:38.404Z,78.86
2017-09-06T13:58:06.779Z,78.08
2017-09-06T14:00:35.157Z,76.14
2017-09-06T14:03:03.524Z,75.48
2017-09-06T14:05:31.898Z,76.37
2017-09-06T14:08:00.193Z,76.14
2017-09-06T14:10:28.563Z,75.58
2017-09-06T14:12:56.857Z,75.79
2017-09-06T14:15:25.203Z,75.82
2017-09-06T14:17:53.804Z,75.78
2017-09-06T14:20:22.139Z,75.68
2017-09-06T14:22:50.456Z,75.18
2017-09-06T14:25:18.835Z,73.24
2017-09-06T14:27:47.149Z,70.29
2017-09-06T14:30:15.450Z,68.14
2017-09-06T14:32:43.752Z,67.49
2017-09-06T14:35:12.058Z,64.90
2017-09-06T14:37:40.433Z,63.53
2017-09-06T14:40:08.725Z,62.36
2017-09-06T14:42:37.075Z,63.43
2017-09-06T14:45:05.388Z,65.28
2017-09-06T14:47:33.695Z,65.26
2017-09-06T14:50:02.067Z,64.52
2017-09-06T14:52:30.385Z,63.74
2017-09-06T14:54:58.766Z,62.54
2017-09-06T14:57:27.136Z,63.10
2017-09-06T14:59:55.466Z,61.35
2017-09-06T15:02:23.762Z,60.98
2017-09-06T15:04:52.058Z,61.23
2017-09-06T15:07:20.386Z,61.13
2017-09-06T15:09:48.677Z,60.87
2017-09-06T15:12:16.990Z,61.49
2017-09-06T15:14:45.298Z,61.14
2017-09-06T15:17:13.605Z,61.80
2017-09-06T15:19:41.898Z,61.29
2017-09-06T15:22:10.226Z,60.60
2017-09-06T15:24:38.529Z,60.58
2017-09-06T15:27:06.825Z,61.12
2017-09-06T15:29:35.153Z,61.01
2017-09-06T15:32:03.449Z,61.72
2017-09-06T15:34:31.756Z,61.60
2017-09-06T15:37:00.049Z,61.51
2017-09-06T15:39:28.357Z,62.00
2017-09-06T15:41:56.750Z,62.15
2017-09-06T15:44:25.065Z,62.94
2017-09-06T15:46:54.113Z,64.59
2017-09-06T15:49:22.577Z,65.11
2017-09-06T15:51:50.892Z,65.96
2017-09-06T15:54:19.203Z,65.99
2017-09-06T15:56:47.558Z,65.55
2017-09-06T15:59:15.870Z,66.26
2017-09-06T16:01:44.178Z,65.96
2017-09-06T16:04:12.481Z,66.54
2017-09-06T16:06:40.780Z,66.11
2017-09-06T16:09:09.085Z,65.43
2017-09-06T16:11:37.426Z,65.48
2017-09-06T16:14:05.754Z,66.39
2017-09-06T16:16:34.060Z,67.70
2017-09-06T16:19:02.375Z,67.60
2017-09-06T16:21:30.687Z,67.96
2017-09-06T16:23:59.014Z,68.24
2017-09-06T16:26:27.315Z,68.42
2017-09-06T16:28:55.623Z,68.34
2017-09-06T16:31:24.005Z,67.96
2017-09-06T16:33:52.333Z,67.79
2017-09-06T16:36:20.658Z,67.52
2017-09-06T16:38:48.985Z,67.43
2017-09-06T16:41:17.282Z,67.62
2017-09-06T16:43:45.574Z,67.98
2017-09-06T16:46:13.879Z,68.73
2017-09-06T16:48:42.173Z,69.40
2017-09-06T16:51:10.472Z,69.93
2017-09-06T16:53:38.789Z,70.17
2017-09-06T16:56:07.107Z,70.18
2017-09-06T16:58:35.401Z,70.19
2017-09-06T17:01:03.721Z,69.63
2017-09-06T17:03:32.017Z,69.74
2017-09-06T17:06:00.377Z,69.57
2017-09-06T17:08:28.686Z,69.71
2017-09-06T17:10:56.989Z,70.21
2017-09-06T17:13:25.298Z,70.42
2017-09-06T17:15:53.605Z,70.49
2017-09-06T17:18:21.909Z,70.82
2017-09-06T17:20:50.217Z,70.14
2017-09-06T17:23:18.518Z,69.91
2017-09-06T17:25:46.824Z,70.31
2017-09-06T17:28:15.121Z,70.42
2017-09-06T17:30:43.425Z,70.68
2017-09-06T17:33:11.725Z,70.95
2017-09-06T17:35:40.035Z,71.04
2017-09-06T17:38:08.332Z,70.96
2017-09-06T17:40:36.653Z,71.37
2017-09-06T17:43:04.961Z,71.32
2017-09-06T17:45:33.269Z,71.69
2017-09-06T17:48:01.574Z,71.66
2017-09-06T17:50:29.878Z,71.43
2017-09-06T17:52:58.172Z,71.49
2017-09-06T17:55:26.505Z,72.25
2017-09-06T17:57:54.798Z,72.47
2017-09-06T18:00:23.125Z,72.18
2017-09-06T18:02:51.422Z,72.52
2017-09-06T18:05:19.741Z,75.42
2017-09-06T18:07:48.078Z,78.83
2017-09-06T18:10:16.395Z,80.92
2017-09-06T18:12:44.697Z,82.25
2017-09-06T18:15:13.009Z,82.93
2017-09-06T18:17:41.334Z,83.06
2017-09-06T18:20:09.625Z,83.45
2017-09-06T18:22:37.947Z,83.73
2017-09-06T18:25:06.258Z,83.58
2017-09-06T18:27:34.577Z,83.50
2017-09-06T18:30:02.924Z,83.10
2017-09-06T18:32:31.229Z,82.53
2017-09-06T18:34:59.529Z,82.27
2017-09-06T18:37:27.895Z,82.04
2017-09-06T18:39:56.212Z,81.48
2017-09-06T18:42:24.529Z,81.92
2017-09-06T18:44:52.828Z,82.13
2017-09-06T18:47:21.132Z,82.14
2017-09-06T18:49:49.496Z,81.89
2017-09-06T18:52:17.911Z,81.80
2017-09-06T18:54:46.202Z,81.95
2017-09-06T18:57:14.557Z,81.75
2017-09-06T18:59:42.866Z,82.03
2017-09-06T19:02:11.220Z,82.01
2017-09-06T19:04:39.564Z,82.09
2017-09-06T19:07:07.869Z,82.39
2017-09-06T19:09:36.166Z,82.58
2017-09-06T19:12:04.481Z,82.50
2017-09-06T19:14:32.778Z,82.46
2017-09-06T19:17:01.087Z,82.04
2017-09-06T19:19:29.385Z,81.82
2017-09-06T19:21:57.712Z,80.53
2017-09-06T19:24:26.114Z,80.67
2017-09-06T19:26:54.428Z,79.81
2017-09-06T19:29:22.721Z,79.48
2017-09-06T19:31:51.037Z,78.74
2017-09-06T19:34:19.386Z,78.99
2017-09-06T19:36:47.689Z,78.95
2017-09-06T19:39:16.050Z,79.08
2017-09-06T19:41:44.398Z,78.86
2017-09-06T19:44:12.713Z,78.69
2017-09-06T19:46:41.025Z,78.56
2017-09-06T19:49:09.363Z,78.49
2017-09-06T19:51:37.693Z,79.05
2017-09-06T19:54:06.045Z,79.46
2017-09-06T19:56:34.419Z,79.41
2017-09-06T19:59:02.721Z,79.58
2017-09-06T20:01:31.066Z,79.28
2017-09-06T20:03:59.428Z,79.29
2017-09-06T20:06:27.731Z,79.65
2017-09-06T20:08:56.037Z,79.54
2017-09-06T20:11:24.356Z,79.44
2017-09-06T20:13:52.669Z,79.09
2017-09-06T20:16:21.008Z,78.68
2017-09-06T20:18:49.313Z,78.60
2017-09-06T20:21:17.670Z,78.72
2017-09-06T20:23:46.079Z,78.54
2017-09-06T20:26:14.552Z,78.55
2017-09-06T20:28:42.868Z,78.60
2017-09-06T20:31:11.173Z,78.36
2017-09-06T20:33:39.485Z,78.03
2017-09-06T20:36:07.792Z,77.75
2017-09-06T20:38:36.105Z,77.77
2017-09-06T20:41:04.413Z,77.79
2017-09-06T20:43:32.793Z,78.06
2017-09-06T20:46:01.082Z,77.81
2017-09-06T20:48:29.393Z,77.56
2017-09-06T20:50:57.706Z,77.61
2017-09-06T20:53:26.013Z,77.70
2017-09-06T20:55:54.337Z,77.61
2017-09-06T20:58:22.665Z,77.61
2017-09-06T21:00:50.957Z,77.73
2017-09-06T21:03:19.255Z,77.79
2017-09-06T21:05:47.597Z,77.46
2017-09-06T21:08:15.987Z,77.54
2017-09-06T21:10:44.349Z,77.07
2017-09-06T21:13:12.665Z,77.02
2017-09-06T21:15:40.975Z,76.78
2017-09-06T21:18:09.276Z,76.35
2017-09-06T21:20:37.651Z,76.54
2017-09-06T21:23:05.958Z,76.23
2017-09-06T21:25:34.265Z,75.91
2017-09-06T21:28:02.563Z,75.72
2017-09-06T21:30:30.871Z,76.02
2017-09-06T21:32:59.172Z,75.98
2017-09-06T21:35:27.491Z,75.55
2017-09-06T21:37:55.798Z,75.18
2017-09-06T21:40:24.102Z,75.23
2017-09-06T21:42:52.414Z,75.12
2017-09-06T21:45:20.742Z,74.71
2017-09-06T21:47:49.045Z,75.17
2017-09-06T21:50:17.351Z,75.05
2017-09-06T21:52:45.666Z,74.93
2017-09-06T21:55:13.961Z,75.20
2017-09-06T21:57:42.284Z,75.14
2017-09-06T22:00:10.593Z,75.73
2017-09-06T22:02:38.903Z,75.97
2017-09-06T22:05:07.210Z,76.36
2017-09-06T22:07:35.528Z,76.69
2017-09-06T22:10:03.834Z,76.78
2017-09-06T22:12:32.140Z,77.12
2017-09-06T22:15:00.433Z,77.39
2017-09-06T22:17:28.721Z,77.53
2017-09-06T22:19:57.040Z,77.92
2017-09-06T22:22:25.348Z,78.32
2017-09-06T22:24:53.663Z,77.87
2017-09-06T22:27:21.977Z,77.58
2017-09-06T22:30:24.946Z,77.81
2017-09-06T22:32:54.025Z,77.84
2017-09-06T22:35:22.333Z,77.96
2017-09-06T22:37:51.415Z,78.23
2017-09-06T22:40:20.492Z,78.42
2017-09-06T22:42:48.802Z,78.35
2017-09-06T22:45:17.141Z,78.36
2017-09-06T22:47:45.552Z,78.50
2017-09-06T22:50:14.613Z,78.08
2017-09-06T22:52:42.921Z,77.97
2017-09-06T22:55:12.025Z,77.41
2017-09-06T22:57:41.098Z,77.55
2017-09-06T23:00:09.409Z,77.84
2017-09-06T23:02:38.494Z,78.03
2017-09-06T23:05:07.569Z,78.23
2017-09-06T23:07:35.893Z,78.62
2017-09-06T23:10:04.193Z,78.73
2017-09-06T23:12:32.559Z,78.87
2017-09-06T23:15:00.850Z,79.18
2017-09-06T23:17:29.182Z,79.41
2017-09-06T23:19:58.252Z,79.40
2017-09-06T23:22:26.557Z,79.71
2017-09-06T23:24:55.637Z,79.72
2017-09-06T23:27:24.703Z,80.06
2017-09-06T23:29:53.035Z,80.24
2017-09-06T23:32:21.347Z,80.29
2017-09-06T23:34:49.657Z,80.55
2017-09-06T23:37:17.966Z,80.87
2017-09-06T23:39:46.281Z,80.61
2017-09-06T23:42:14.580Z,80.66
2017-09-06T23:44:42.921Z,81.08
2017-09-06T23:47:11.230Z,81.19
2017-09-06T23:49:39.550Z,81.31
2017-09-06T23:52:07.857Z,81.58
2017-09-06T23:54:36.157Z,81.65
2017-09-06T23:57:04.475Z,82.02
2017-09-06T23:59:33.598Z,81.91
